KCDI

Cambridge Municipal Airport

Cambridge, Ohio, USA
METAR KCDI 271155Z AUTO 00000KT 1 1/2SM BR OVC003 20/20 A2993 RMK AO2 T01960197 10196 20181
Observed Flight Rules
May-27 @ 11:55 UTC (11 minutes ago) Instrument Flight Rules
Visibility Clouds Conditions
1 1/2 miles
  • Overcast at 300' AGL
  • Mist
Temperatures Readings
Current 20°C / 68°F
Dewpoint 20°C / 68°F
Humidity 100%
Altimeter 29.93" Hg
Pressure 1014 hPa
Elevation 244
METAR KCDI 271155Z AUTO 00000KT 1 1/2SM BR OVC003 20/20 A2993 RMK AO2 T01960197 10196 20181
Observed Flight Rules
May-27 @ 11:55 UTC
(11 minutes ago)
LIFR
Clouds
  • Overcast at 300' AGL
Conditions
  • Mist
Temperature Dewpoint
20°C / 68°F 20°C / 68°F
Humidity Altimeter Pressure
100% 29.93" Hg 1014 hPa